Terminal Aerodrome Forecast
Issued by NWS

Home | Current Version | Previous Version | Text Only | Print | Product List | Glossary On
Versions: 1 2 3 4 5 6 7 8 9 10 11 12 13 14 15 16 17 18 19 20 21 22 23 24 25 26 27 28 29 30 31 32 33
000
FTUS41 KALY 040447 AAC
TAFPSF
TAF AMD
KPSF 040447Z 0405/0424 20012G20KT 3SM -SN SCT008 OVC015
      TEMPO 0405/0406 2SM -SNPL BR OVC008
     FM040600 21010G15KT 5SM BR OVC015
      TEMPO 0406/0408 3SM -FZDZ OVC008
     FM041300 29008G14KT P6SM OVC040
     FM041600 29010G16KT P6SM OVC070=

USA.gov is the U.S. government's official web portal to all federal, state and local government web resources and services.